PWSweather.com
Personal Weather Stations
Station Observations
TEOWRC
Pt, CampotizzoroIT 51028

PtCampotizzoroIT 51028

Lat: 44.039426, Lon: 10.870519999999942

Elevation: 0

Station Type: Davis Vantage Vue

http://www.meteocampotizzoro.it/

Latest ConditionsUpdated 10:15:03 PM GMT+01:01 Sunday, Jan 19, 2020
Currently Today's Max Today's Min Today's Average
Temperature 36.5°F2.5°C 39.1°F3.9°C 28.0°F-2.2°C 35.4°F1.9°C
Dew Point 29.7°F-1.3°C 35.2°F1.8°C 27.3°F-2.6°C 31.7°F-0.2°C
Winds 5.8 mph SSE9.3 kmh SSE 8.1 mph -13.0 kmh - - 2.6 mph 4.2 kmh
Wind Gusts 3.5 mph5.6 kmh 17.3 mph27.8 kmh - -
Humidity 76% 98% 74% 86%
Pressure 30.47 in1031.8 mb 30.48 in1032.2 mb 30.21 in1023.0 mb -
Precipitation - 0.05 in1.3 mm - -
Hour Temp Dew Point Humidity Winds Wind Gusts Pressure Precip Precip Rate Daily Precip Total
10:15 PM 36.5°F2.5°C 29.7°F-1.3°C 76% 5.8 mph SSE9.3 kmh SSE 3.5 mph5.6 kmh 30.47 in1031.8 mb - 0.00 in0.0 mm 0.05 in1.3 mm
10:10 PM 36.5°F2.5°C 29.6°F-1.3°C 76% 4.6 mph SSE7.4 kmh SSE 6.9 mph11.1 kmh 30.48 in1032.2 mb - 0.00 in0.0 mm 0.05 in1.3 mm
10:05 PM 36.4°F2.4°C 29.6°F-1.3°C 76% 2.3 mph S3.7 kmh S 5.8 mph9.3 kmh 30.47 in1031.8 mb - 0.00 in0.0 mm 0.05 in1.3 mm
10:00 PM 36.5°F2.5°C 29.7°F-1.3°C 76% 4.6 mph SW7.4 kmh SW 10.4 mph16.7 kmh 30.47 in1031.8 mb - 0.00 in0.0 mm 0.05 in1.3 mm
09:55 PM 36.4°F2.4°C 29.6°F-1.3°C 76% 3.5 mph S5.6 kmh S 12.7 mph20.4 kmh 30.46 in1031.5 mb - 0.00 in0.0 mm 0.05 in1.3 mm
09:50 PM 36.4°F2.4°C 29.2°F-1.6°C 75% 4.6 mph SSW7.4 kmh SSW 5.8 mph9.3 kmh 30.46 in1031.5 mb - 0.00 in0.0 mm 0.05 in1.3 mm
09:45 PM 36.5°F2.5°C 29.3°F-1.5°C 75% 4.6 mph WSW7.4 kmh WSW 5.8 mph9.3 kmh 30.46 in1031.5 mb - 0.00 in0.0 mm 0.05 in1.3 mm
09:40 PM 36.5°F2.5°C 29.0°F-1.7°C 74% 4.6 mph S7.4 kmh S 10.4 mph16.7 kmh 30.46 in1031.5 mb - 0.00 in0.0 mm 0.05 in1.3 mm
09:35 PM 36.5°F2.5°C 29.3°F-1.5°C 75% 5.8 mph SE9.3 kmh SE 5.8 mph9.3 kmh 30.47 in1031.8 mb - 0.00 in0.0 mm 0.05 in1.3 mm
09:30 PM 36.4°F2.4°C 29.2°F-1.6°C 75% 4.6 mph ESE7.4 kmh ESE 6.9 mph11.1 kmh 30.46 in1031.5 mb - 0.00 in0.0 mm 0.05 in1.3 mm
09:25 PM 36.4°F2.4°C 29.2°F-1.6°C 75% 2.3 mph SSE3.7 kmh SSE 5.8 mph9.3 kmh 30.46 in1031.5 mb - 0.00 in0.0 mm 0.05 in1.3 mm
09:20 PM 36.4°F2.4°C 29.2°F-1.6°C 75% 4.6 mph NW7.4 kmh NW 12.7 mph20.4 kmh 30.46 in1031.5 mb - 0.00 in0.0 mm 0.05 in1.3 mm
09:15 PM 36.3°F2.4°C 29.1°F-1.6°C 75% 3.5 mph WSW5.6 kmh WSW 8.1 mph13.0 kmh 30.46 in1031.5 mb - 0.00 in0.0 mm 0.05 in1.3 mm
09:10 PM 36.2°F2.3°C 29.0°F-1.7°C 75% 4.6 mph S7.4 kmh S 10.4 mph16.7 kmh 30.46 in1031.5 mb - 0.00 in0.0 mm 0.05 in1.3 mm
09:05 PM 36.1°F2.3°C 29.3°F-1.5°C 76% 2.3 mph SW3.7 kmh SW 5.8 mph9.3 kmh 30.46 in1031.5 mb - 0.00 in0.0 mm 0.05 in1.3 mm
09:00 PM 36.0°F2.2°C 29.2°F-1.6°C 76% 4.6 mph S7.4 kmh S 11.5 mph18.5 kmh 30.45 in1031.2 mb - 0.00 in0.0 mm 0.05 in1.3 mm
08:55 PM 36.0°F2.2°C 29.2°F-1.6°C 76% 4.6 mph SW7.4 kmh SW 9.2 mph14.8 kmh 30.45 in1031.2 mb - 0.00 in0.0 mm 0.05 in1.3 mm
08:50 PM 36.0°F2.2°C 29.2°F-1.6°C 76% 4.6 mph SE7.4 kmh SE 10.4 mph16.7 kmh 30.45 in1031.2 mb - 0.00 in0.0 mm 0.05 in1.3 mm
08:45 PM 36.0°F2.2°C 29.2°F-1.6°C 76% 2.3 mph S3.7 kmh S 3.5 mph5.6 kmh 30.45 in1031.2 mb - 0.00 in0.0 mm 0.05 in1.3 mm
08:40 PM 36.1°F2.3°C 28.9°F-1.7°C 75% 3.5 mph WSW5.6 kmh WSW 9.2 mph14.8 kmh 30.45 in1031.2 mb - 0.00 in0.0 mm 0.05 in1.3 mm
08:35 PM 36.1°F2.3°C 29.0°F-1.7°C 75% 3.5 mph E5.6 kmh E 16.1 mph25.9 kmh 30.44 in1030.8 mb - 0.00 in0.0 mm 0.05 in1.3 mm
08:30 PM 36.1°F2.3°C 28.9°F-1.7°C 75% 4.6 mph SW7.4 kmh SW 6.9 mph11.1 kmh 30.44 in1030.8 mb - 0.00 in0.0 mm 0.05 in1.3 mm
08:25 PM 36.2°F2.3°C 29.1°F-1.6°C 75% 3.5 mph S5.6 kmh S 8.1 mph13.0 kmh 30.44 in1030.8 mb - 0.00 in0.0 mm 0.05 in1.3 mm
08:20 PM 36.3°F2.4°C 29.1°F-1.6°C 75% 4.6 mph S7.4 kmh S 13.8 mph22.2 kmh 30.44 in1030.8 mb - 0.00 in0.0 mm 0.05 in1.3 mm
08:15 PM 36.3°F2.4°C 29.2°F-1.6°C 75% 3.5 mph SW5.6 kmh SW 8.1 mph13.0 kmh 30.44 in1030.8 mb - 0.00 in0.0 mm 0.05 in1.3 mm
08:10 PM 36.5°F2.5°C 29.3°F-1.5°C 75% 3.5 mph W5.6 kmh W 11.5 mph18.5 kmh 30.44 in1030.8 mb - 0.00 in0.0 mm 0.05 in1.3 mm
08:05 PM 36.5°F2.5°C 29.0°F-1.7°C 74% 4.6 mph SE7.4 kmh SE 11.5 mph18.5 kmh 30.44 in1030.8 mb - 0.00 in0.0 mm 0.05 in1.3 mm
08:00 PM 36.5°F2.5°C 29.3°F-1.5°C 75% 4.6 mph S7.4 kmh S 4.6 mph7.4 kmh 30.44 in1030.8 mb - 0.00 in0.0 mm 0.05 in1.3 mm
07:55 PM 36.6°F2.6°C 29.4°F-1.4°C 75% 2.3 mph SSE3.7 kmh SSE 6.9 mph11.1 kmh 30.44 in1030.8 mb - 0.00 in0.0 mm 0.05 in1.3 mm
07:50 PM 36.6°F2.6°C 29.7°F-1.3°C 76% 5.8 mph SE9.3 kmh SE 9.2 mph14.8 kmh 30.44 in1030.8 mb - 0.00 in0.0 mm 0.05 in1.3 mm
07:45 PM 36.6°F2.6°C 29.7°F-1.3°C 76% 4.6 mph SSW7.4 kmh SSW 4.6 mph7.4 kmh 30.44 in1030.8 mb - 0.00 in0.0 mm 0.05 in1.3 mm
07:40 PM 36.6°F2.6°C 29.7°F-1.3°C 76% 5.8 mph SW9.3 kmh SW 6.9 mph11.1 kmh 30.43 in1030.5 mb - 0.00 in0.0 mm 0.05 in1.3 mm
07:35 PM 36.5°F2.5°C 30.0°F-1.1°C 77% 4.6 mph S7.4 kmh S 8.1 mph13.0 kmh 30.43 in1030.5 mb - 0.00 in0.0 mm 0.05 in1.3 mm
07:30 PM 36.5°F2.5°C 30.0°F-1.1°C 77% 4.6 mph SW7.4 kmh SW 8.1 mph13.0 kmh 30.43 in1030.5 mb - 0.00 in0.0 mm 0.05 in1.3 mm
07:25 PM 36.5°F2.5°C 30.3°F-0.9°C 78% 6.9 mph S11.1 kmh S 6.9 mph11.1 kmh 30.43 in1030.5 mb - 0.00 in0.0 mm 0.05 in1.3 mm
07:20 PM 36.5°F2.5°C 30.6°F-0.8°C 79% 4.6 mph N7.4 kmh N 11.5 mph18.5 kmh 30.43 in1030.5 mb - 0.00 in0.0 mm 0.05 in1.3 mm
07:15 PM 36.6°F2.6°C 31.0°F-0.6°C 80% 3.5 mph WSW5.6 kmh WSW 4.6 mph7.4 kmh 30.42 in1030.1 mb - 0.00 in0.0 mm 0.05 in1.3 mm
07:10 PM 36.5°F2.5°C 30.6°F-0.8°C 79% 4.6 mph SSE7.4 kmh SSE 4.6 mph7.4 kmh 30.43 in1030.5 mb - 0.00 in0.0 mm 0.05 in1.3 mm
07:05 PM 36.5°F2.5°C 30.9°F-0.6°C 80% 3.5 mph WSW5.6 kmh WSW 4.6 mph7.4 kmh 30.42 in1030.1 mb - 0.00 in0.0 mm 0.05 in1.3 mm
07:00 PM 36.5°F2.5°C 30.9°F-0.6°C 80% 2.3 mph SSW3.7 kmh SSW 3.5 mph5.6 kmh 30.42 in1030.1 mb - 0.00 in0.0 mm 0.05 in1.3 mm
06:55 PM 36.5°F2.5°C 31.2°F-0.4°C 81% 1.2 mph E1.9 kmh E 1.2 mph1.9 kmh 30.42 in1030.1 mb - 0.00 in0.0 mm 0.05 in1.3 mm
06:50 PM 36.5°F2.5°C 31.5°F-0.3°C 82% 3.5 mph SSW5.6 kmh SSW 10.4 mph16.7 kmh 30.41 in1029.8 mb - 0.00 in0.0 mm 0.05 in1.3 mm
06:45 PM 36.4°F2.4°C 31.2°F-0.4°C 81% 2.3 mph SE3.7 kmh SE 3.5 mph5.6 kmh 30.40 in1029.5 mb - 0.00 in0.0 mm 0.05 in1.3 mm
06:40 PM 36.3°F2.4°C 31.0°F-0.6°C 81% 1.2 mph SE1.9 kmh SE 5.8 mph9.3 kmh 30.41 in1029.8 mb - 0.00 in0.0 mm 0.05 in1.3 mm
06:35 PM 36.4°F2.4°C 31.1°F-0.5°C 81% 2.3 mph SSE3.7 kmh SSE 2.3 mph3.7 kmh 30.40 in1029.5 mb - 0.00 in0.0 mm 0.05 in1.3 mm
06:30 PM 36.3°F2.4°C 31.0°F-0.6°C 81% 2.3 mph S3.7 kmh S 10.4 mph16.7 kmh 30.40 in1029.5 mb - 0.00 in0.0 mm 0.05 in1.3 mm
06:25 PM 36.3°F2.4°C 31.0°F-0.6°C 81% 1.2 mph SW1.9 kmh SW 3.5 mph5.6 kmh 30.40 in1029.5 mb - 0.00 in0.0 mm 0.05 in1.3 mm
06:20 PM 36.2°F2.3°C 30.9°F-0.6°C 81% 1.2 mph SE1.9 kmh SE 5.8 mph9.3 kmh 30.40 in1029.5 mb - 0.00 in0.0 mm 0.05 in1.3 mm
06:15 PM 36.1°F2.3°C 30.9°F-0.6°C 81% 2.3 mph SSE3.7 kmh SSE 5.8 mph9.3 kmh 30.39 in1029.1 mb - 0.00 in0.0 mm 0.05 in1.3 mm
06:10 PM 36.1°F2.3°C 30.8°F-0.7°C 81% 1.2 mph ESE1.9 kmh ESE 4.6 mph7.4 kmh 30.39 in1029.1 mb - 0.00 in0.0 mm 0.05 in1.3 mm
06:05 PM 36.0°F2.2°C 31.0°F-0.6°C 82% 3.5 mph NW5.6 kmh NW 6.9 mph11.1 kmh 30.39 in1029.1 mb - 0.00 in0.0 mm 0.05 in1.3 mm
06:00 PM 35.9°F2.2°C 31.3°F-0.4°C 83% 2.3 mph WNW3.7 kmh WNW 3.5 mph5.6 kmh 30.39 in1029.1 mb - 0.00 in0.0 mm 0.05 in1.3 mm
05:55 PM 36.0°F2.2°C 31.6°F-0.2°C 84% 3.5 mph S5.6 kmh S 10.4 mph16.7 kmh 30.39 in1029.1 mb - 0.00 in0.0 mm 0.05 in1.3 mm
05:50 PM 36.2°F2.3°C 31.6°F-0.2°C 83% 2.3 mph WSW3.7 kmh WSW 4.6 mph7.4 kmh 30.39 in1029.1 mb - 0.00 in0.0 mm 0.05 in1.3 mm
05:45 PM 36.4°F2.4°C 31.7°F-0.2°C 83% 2.3 mph SW3.7 kmh SW 6.9 mph11.1 kmh 30.39 in1029.1 mb - 0.00 in0.0 mm 0.05 in1.3 mm
05:40 PM 36.4°F2.4°C 31.5°F-0.3°C 82% 4.6 mph SSE7.4 kmh SSE 6.9 mph11.1 kmh 30.39 in1029.1 mb - 0.00 in0.0 mm 0.05 in1.3 mm
05:35 PM 36.3°F2.4°C 31.6°F-0.2°C 83% 3.5 mph ESE5.6 kmh ESE 4.6 mph7.4 kmh 30.39 in1029.1 mb - 0.00 in0.0 mm 0.05 in1.3 mm
05:30 PM 36.4°F2.4°C 31.4°F-0.3°C 82% 4.6 mph SE7.4 kmh SE 17.3 mph27.8 kmh 30.38 in1028.8 mb - 0.00 in0.0 mm 0.05 in1.3 mm
05:25 PM 36.3°F2.4°C 31.3°F-0.4°C 82% 5.8 mph S9.3 kmh S 8.1 mph13.0 kmh 30.38 in1028.8 mb - 0.00 in0.0 mm 0.05 in1.3 mm
05:20 PM 36.3°F2.4°C 31.6°F-0.2°C 83% 4.6 mph SE7.4 kmh SE 8.1 mph13.0 kmh 30.38 in1028.8 mb - 0.00 in0.0 mm 0.05 in1.3 mm
05:15 PM 36.4°F2.4°C 31.7°F-0.2°C 83% 5.8 mph S9.3 kmh S 4.6 mph7.4 kmh 30.37 in1028.4 mb - 0.00 in0.0 mm 0.05 in1.3 mm
05:10 PM 36.5°F2.5°C 31.8°F-0.1°C 83% 3.5 mph SW5.6 kmh SW 6.9 mph11.1 kmh 30.37 in1028.4 mb - 0.00 in0.0 mm 0.05 in1.3 mm
05:05 PM 36.5°F2.5°C 31.5°F-0.3°C 82% 3.5 mph SW5.6 kmh SW 11.5 mph18.5 kmh 30.37 in1028.4 mb - 0.00 in0.0 mm 0.05 in1.3 mm
05:00 PM 36.5°F2.5°C 31.5°F-0.3°C 82% 4.6 mph SSE7.4 kmh SSE 5.8 mph9.3 kmh 30.37 in1028.4 mb - 0.00 in0.0 mm 0.05 in1.3 mm
04:55 PM 36.6°F2.6°C 31.9°F-0.1°C 83% 3.5 mph SW5.6 kmh SW 3.5 mph5.6 kmh 30.36 in1028.1 mb - 0.00 in0.0 mm 0.05 in1.3 mm
04:50 PM 36.7°F2.6°C 31.7°F-0.2°C 82% 4.6 mph SW7.4 kmh SW 10.4 mph16.7 kmh 30.36 in1028.1 mb - 0.00 in0.0 mm 0.05 in1.3 mm
04:45 PM 36.7°F2.6°C 31.7°F-0.2°C 82% 1.2 mph SW1.9 kmh SW 3.5 mph5.6 kmh 30.36 in1028.1 mb - 0.00 in0.0 mm 0.05 in1.3 mm
04:40 PM 36.7°F2.6°C 31.7°F-0.2°C 82% 2.3 mph W3.7 kmh W 6.9 mph11.1 kmh 30.36 in1028.1 mb - 0.00 in0.0 mm 0.05 in1.3 mm
04:35 PM 36.6°F2.6°C 31.6°F-0.2°C 82% 4.6 mph SE7.4 kmh SE 15.0 mph24.1 kmh 30.36 in1028.1 mb - 0.00 in0.0 mm 0.05 in1.3 mm
04:30 PM 36.5°F2.5°C 31.8°F-0.1°C 83% 3.5 mph S5.6 kmh S 4.6 mph7.4 kmh 30.36 in1028.1 mb - 0.00 in0.0 mm 0.05 in1.3 mm
04:25 PM 36.5°F2.5°C 31.8°F-0.1°C 83% 3.5 mph SE5.6 kmh SE 6.9 mph11.1 kmh 30.35 in1027.8 mb - 0.00 in0.0 mm 0.05 in1.3 mm
04:20 PM 36.3°F2.4°C 31.9°F-0.1°C 84% 5.8 mph WSW9.3 kmh WSW 11.5 mph18.5 kmh 30.36 in1028.1 mb - 0.00 in0.0 mm 0.05 in1.3 mm
04:15 PM 36.2°F2.3°C 32.2°F0.1°C 85% 3.5 mph S5.6 kmh S 6.9 mph11.1 kmh 30.36 in1028.1 mb - 0.00 in0.0 mm 0.05 in1.3 mm
04:10 PM 36.3°F2.4°C 32.2°F0.1°C 85% 1.2 mph SE1.9 kmh SE 4.6 mph7.4 kmh 30.35 in1027.8 mb - 0.01 in0.3 mm 0.05 in1.3 mm
04:05 PM 36.3°F2.4°C 32.2°F0.1°C 85% 2.3 mph W3.7 kmh W 4.6 mph7.4 kmh 30.35 in1027.8 mb - 0.00 in0.0 mm 0.04 in1.0 mm
04:00 PM 36.1°F2.3°C 32.3°F0.2°C 86% 2.3 mph SW3.7 kmh SW 3.5 mph5.6 kmh 30.35 in1027.8 mb - 0.00 in0.0 mm 0.04 in1.0 mm
03:55 PM 36.1°F2.3°C 32.3°F0.2°C 86% 2.3 mph S3.7 kmh S 3.5 mph5.6 kmh 30.34 in1027.4 mb - 0.00 in0.0 mm 0.04 in1.0 mm
03:50 PM 36.2°F2.3°C 32.4°F0.2°C 86% 2.3 mph S3.7 kmh S 6.9 mph11.1 kmh 30.34 in1027.4 mb - 0.00 in0.0 mm 0.04 in1.0 mm
03:45 PM 36.4°F2.4°C 32.3°F0.2°C 85% 2.3 mph SE3.7 kmh SE 4.6 mph7.4 kmh 30.34 in1027.4 mb - 0.00 in0.0 mm 0.04 in1.0 mm
03:40 PM 36.4°F2.4°C 32.3°F0.2°C 85% 2.3 mph SE3.7 kmh SE 3.5 mph5.6 kmh 30.34 in1027.4 mb - 0.00 in0.0 mm 0.04 in1.0 mm
03:35 PM 36.5°F2.5°C 32.4°F0.2°C 85% 2.3 mph S3.7 kmh S 4.6 mph7.4 kmh 30.34 in1027.4 mb - 0.00 in0.0 mm 0.04 in1.0 mm
03:30 PM 36.5°F2.5°C 32.1°F0.1°C 84% 2.3 mph E3.7 kmh E 3.5 mph5.6 kmh 30.34 in1027.4 mb - 0.00 in0.0 mm 0.04 in1.0 mm
03:25 PM 36.6°F2.6°C 32.0°F0.0°C 83% 3.5 mph WSW5.6 kmh WSW 5.8 mph9.3 kmh 30.34 in1027.4 mb - 0.00 in0.0 mm 0.04 in1.0 mm
03:20 PM 36.6°F2.6°C 31.9°F-0.1°C 83% 3.5 mph NNW5.6 kmh NNW 5.8 mph9.3 kmh 30.34 in1027.4 mb - 0.00 in0.0 mm 0.04 in1.0 mm
03:15 PM 36.6°F2.6°C 31.9°F-0.1°C 83% 4.6 mph W7.4 kmh W 6.9 mph11.1 kmh 30.34 in1027.4 mb - 0.00 in0.0 mm 0.04 in1.0 mm
03:10 PM 36.6°F2.6°C 31.9°F-0.1°C 83% 2.3 mph ESE3.7 kmh ESE 3.5 mph5.6 kmh 30.34 in1027.4 mb - 0.00 in0.0 mm 0.04 in1.0 mm
03:05 PM 36.7°F2.6°C 32.0°F0.0°C 83% 4.6 mph SSE7.4 kmh SSE 5.8 mph9.3 kmh 30.33 in1027.1 mb - 0.00 in0.0 mm 0.04 in1.0 mm
03:00 PM 36.7°F2.6°C 32.0°F0.0°C 83% 2.3 mph NNW3.7 kmh NNW 4.6 mph7.4 kmh 30.33 in1027.1 mb - 0.00 in0.0 mm 0.04 in1.0 mm
02:55 PM 36.7°F2.6°C 32.0°F0.0°C 83% 3.5 mph SE5.6 kmh SE 6.9 mph11.1 kmh 30.33 in1027.1 mb - 0.00 in0.0 mm 0.04 in1.0 mm
02:50 PM 36.8°F2.7°C 32.1°F0.1°C 83% 5.8 mph SSW9.3 kmh SSW 9.2 mph14.8 kmh 30.32 in1026.8 mb - 0.00 in0.0 mm 0.04 in1.0 mm
02:45 PM 37.0°F2.8°C 32.3°F0.2°C 83% 2.3 mph NNE3.7 kmh NNE 3.5 mph5.6 kmh 30.32 in1026.8 mb - 0.00 in0.0 mm 0.04 in1.0 mm
02:40 PM 37.0°F2.8°C 32.3°F0.2°C 83% 3.5 mph SSW5.6 kmh SSW 6.9 mph11.1 kmh 30.32 in1026.8 mb - 0.00 in0.0 mm 0.04 in1.0 mm
02:35 PM 37.1°F2.8°C 32.7°F0.4°C 84% 4.6 mph SW7.4 kmh SW 5.8 mph9.3 kmh 30.32 in1026.8 mb - 0.00 in0.0 mm 0.04 in1.0 mm
02:30 PM 37.0°F2.8°C 32.6°F0.3°C 84% 3.5 mph S5.6 kmh S 5.8 mph9.3 kmh 30.32 in1026.8 mb - 0.00 in0.0 mm 0.04 in1.0 mm
02:25 PM 37.0°F2.8°C 32.6°F0.3°C 84% 5.8 mph SSE9.3 kmh SSE 6.9 mph11.1 kmh 30.32 in1026.8 mb - 0.00 in0.0 mm 0.04 in1.0 mm
02:20 PM 37.1°F2.8°C 32.7°F0.4°C 84% 3.5 mph SE5.6 kmh SE 5.8 mph9.3 kmh 30.32 in1026.8 mb - 0.00 in0.0 mm 0.04 in1.0 mm
02:15 PM 37.3°F2.9°C 32.9°F0.5°C 84% 4.6 mph SSW7.4 kmh SSW 6.9 mph11.1 kmh 30.31 in1026.4 mb - 0.00 in0.0 mm 0.04 in1.0 mm
02:10 PM 37.4°F3.0°C 32.8°F0.4°C 83% 5.8 mph SSE9.3 kmh SSE 10.4 mph16.7 kmh 30.31 in1026.4 mb - 0.00 in0.0 mm 0.04 in1.0 mm
02:05 PM 37.7°F3.2°C 33.0°F0.6°C 83% 3.5 mph SE5.6 kmh SE 3.5 mph5.6 kmh 30.31 in1026.4 mb - 0.00 in0.0 mm 0.04 in1.0 mm
02:00 PM 37.7°F3.2°C 33.0°F0.6°C 83% 4.6 mph SE7.4 kmh SE 11.5 mph18.5 kmh 30.31 in1026.4 mb - 0.00 in0.0 mm 0.04 in1.0 mm
01:55 PM 37.8°F3.2°C 32.8°F0.4°C 82% 4.6 mph ESE7.4 kmh ESE 10.4 mph16.7 kmh 30.30 in1026.1 mb - 0.00 in0.0 mm 0.04 in1.0 mm
01:50 PM 38.0°F3.3°C 32.7°F0.4°C 81% 8.1 mph SSE13.0 kmh SSE 13.8 mph22.2 kmh 30.31 in1026.4 mb - 0.00 in0.0 mm 0.04 in1.0 mm
01:45 PM 37.9°F3.3°C 32.9°F0.5°C 82% 3.5 mph SE5.6 kmh SE 8.1 mph13.0 kmh 30.30 in1026.1 mb - 0.00 in0.0 mm 0.04 in1.0 mm
01:40 PM 37.9°F3.3°C 32.9°F0.5°C 82% 5.8 mph S9.3 kmh S 10.4 mph16.7 kmh 30.30 in1026.1 mb - 0.00 in0.0 mm 0.04 in1.0 mm
01:35 PM 38.1°F3.4°C 33.1°F0.6°C 82% 6.9 mph SSE11.1 kmh SSE 11.5 mph18.5 kmh 30.30 in1026.1 mb - 0.00 in0.0 mm 0.04 in1.0 mm
01:30 PM 38.3°F3.5°C 33.6°F0.9°C 83% 2.3 mph S3.7 kmh S 8.1 mph13.0 kmh 30.30 in1026.1 mb - 0.00 in0.0 mm 0.04 in1.0 mm
01:25 PM 38.5°F3.6°C 33.8°F1.0°C 83% 3.5 mph SW5.6 kmh SW 6.9 mph11.1 kmh 30.30 in1026.1 mb - 0.00 in0.0 mm 0.04 in1.0 mm
01:20 PM 38.5°F3.6°C 33.8°F1.0°C 83% 2.3 mph SE3.7 kmh SE 4.6 mph7.4 kmh 30.30 in1026.1 mb - 0.00 in0.0 mm 0.04 in1.0 mm
01:15 PM 38.3°F3.5°C 33.6°F0.9°C 83% 2.3 mph WSW3.7 kmh WSW 3.5 mph5.6 kmh 30.30 in1026.1 mb - 0.00 in0.0 mm 0.04 in1.0 mm
01:10 PM 38.5°F3.6°C 33.5°F0.8°C 82% 4.6 mph S7.4 kmh S 6.9 mph11.1 kmh 30.30 in1026.1 mb - 0.00 in0.0 mm 0.04 in1.0 mm
01:05 PM 38.8°F3.8°C 34.1°F1.2°C 83% 2.3 mph S3.7 kmh S 5.8 mph9.3 kmh 30.30 in1026.1 mb - 0.00 in0.0 mm 0.04 in1.0 mm
01:00 PM 38.8°F3.8°C 35.0°F1.7°C 86% 2.3 mph SE3.7 kmh SE 5.8 mph9.3 kmh 30.30 in1026.1 mb - 0.00 in0.0 mm 0.04 in1.0 mm
12:55 PM 38.6°F3.7°C 34.5°F1.4°C 85% 4.6 mph ESE7.4 kmh ESE 11.5 mph18.5 kmh 30.30 in1026.1 mb - 0.00 in0.0 mm 0.04 in1.0 mm
12:50 PM 38.6°F3.7°C 34.5°F1.4°C 85% 2.3 mph SE3.7 kmh SE 3.5 mph5.6 kmh 30.30 in1026.1 mb - 0.00 in0.0 mm 0.04 in1.0 mm
12:45 PM 38.4°F3.6°C 33.7°F0.9°C 83% 4.6 mph S7.4 kmh S 8.1 mph13.0 kmh 30.30 in1026.1 mb - 0.00 in0.0 mm 0.04 in1.0 mm
12:40 PM 38.4°F3.6°C 34.0°F1.1°C 84% 3.5 mph SSW5.6 kmh SSW 11.5 mph18.5 kmh 30.30 in1026.1 mb - 0.00 in0.0 mm 0.04 in1.0 mm
12:35 PM 38.3°F3.5°C 33.9°F1.1°C 84% 4.6 mph NNW7.4 kmh NNW 6.9 mph11.1 kmh 30.30 in1026.1 mb - 0.00 in0.0 mm 0.04 in1.0 mm
12:30 PM 38.6°F3.7°C 34.2°F1.2°C 84% 3.5 mph SSE5.6 kmh SSE 8.1 mph13.0 kmh 30.30 in1026.1 mb - 0.00 in0.0 mm 0.04 in1.0 mm
12:25 PM 38.8°F3.8°C 34.1°F1.2°C 83% 3.5 mph S5.6 kmh S 8.1 mph13.0 kmh 30.30 in1026.1 mb - 0.00 in0.0 mm 0.04 in1.0 mm
12:20 PM 39.1°F3.9°C 33.8°F1.0°C 81% 3.5 mph S5.6 kmh S 8.1 mph13.0 kmh 30.30 in1026.1 mb - 0.00 in0.0 mm 0.04 in1.0 mm
12:15 PM 39.1°F3.9°C 34.1°F1.2°C 82% 3.5 mph E5.6 kmh E 3.5 mph5.6 kmh 30.30 in1026.1 mb - 0.00 in0.0 mm 0.04 in1.0 mm
12:10 PM 38.9°F3.8°C 33.9°F1.1°C 82% 3.5 mph SSE5.6 kmh SSE 5.8 mph9.3 kmh 30.30 in1026.1 mb - 0.00 in0.0 mm 0.04 in1.0 mm
12:05 PM 38.8°F3.8°C 34.1°F1.2°C 83% 3.5 mph WSW5.6 kmh WSW 6.9 mph11.1 kmh 30.30 in1026.1 mb - 0.00 in0.0 mm 0.04 in1.0 mm
12:00 PM 38.7°F3.7°C 33.6°F0.9°C 82% 2.3 mph SE3.7 kmh SE 3.5 mph5.6 kmh 30.30 in1026.1 mb - 0.00 in0.0 mm 0.04 in1.0 mm
11:55 AM 38.7°F3.7°C 34.3°F1.3°C 84% 3.5 mph SSW5.6 kmh SSW 8.1 mph13.0 kmh 30.30 in1026.1 mb - 0.00 in0.0 mm 0.04 in1.0 mm
11:50 AM 38.3°F3.5°C 34.2°F1.2°C 85% 1.2 mph SE1.9 kmh SE 2.3 mph3.7 kmh 30.30 in1026.1 mb - 0.00 in0.0 mm 0.04 in1.0 mm
11:45 AM 38.2°F3.4°C 34.1°F1.2°C 85% 3.5 mph SW5.6 kmh SW 4.6 mph7.4 kmh 30.30 in1026.1 mb - 0.00 in0.0 mm 0.04 in1.0 mm
11:40 AM 38.3°F3.5°C 34.5°F1.4°C 86% 2.3 mph S3.7 kmh S 5.8 mph9.3 kmh 30.30 in1026.1 mb - 0.00 in0.0 mm 0.04 in1.0 mm
11:35 AM 38.4°F3.6°C 34.9°F1.6°C 87% 2.3 mph S3.7 kmh S 3.5 mph5.6 kmh 30.30 in1026.1 mb - 0.00 in0.0 mm 0.04 in1.0 mm
11:30 AM 38.4°F3.6°C 35.2°F1.8°C 88% 2.3 mph E3.7 kmh E 3.5 mph5.6 kmh 30.30 in1026.1 mb - 0.01 in0.3 mm 0.04 in1.0 mm
11:25 AM 38.4°F3.6°C 34.6°F1.4°C 86% 4.6 mph SSE7.4 kmh SSE 4.6 mph7.4 kmh 30.30 in1026.1 mb - 0.00 in0.0 mm 0.03 in0.8 mm
11:20 AM 38.0°F3.3°C 33.9°F1.1°C 85% 3.5 mph E5.6 kmh E 4.6 mph7.4 kmh 30.30 in1026.1 mb - 0.00 in0.0 mm 0.03 in0.8 mm
11:15 AM 37.7°F3.2°C 33.6°F0.9°C 85% 3.5 mph SE5.6 kmh SE 5.8 mph9.3 kmh 30.30 in1026.1 mb - 0.00 in0.0 mm 0.03 in0.8 mm
11:10 AM 37.7°F3.2°C 33.6°F0.9°C 85% 2.3 mph SSW3.7 kmh SSW 3.5 mph5.6 kmh 30.30 in1026.1 mb - 0.00 in0.0 mm 0.03 in0.8 mm
11:05 AM 38.2°F3.4°C 34.4°F1.3°C 86% 4.6 mph W7.4 kmh W 10.4 mph16.7 kmh 30.30 in1026.1 mb - 0.00 in0.0 mm 0.03 in0.8 mm
11:00 AM 38.4°F3.6°C 34.9°F1.6°C 87% 2.3 mph S3.7 kmh S 4.6 mph7.4 kmh 30.30 in1026.1 mb - 0.00 in0.0 mm 0.03 in0.8 mm
10:55 AM 38.3°F3.5°C 34.5°F1.4°C 86% 2.3 mph SE3.7 kmh SE 9.2 mph14.8 kmh 30.30 in1026.1 mb - 0.00 in0.0 mm 0.03 in0.8 mm
10:50 AM 38.4°F3.6°C 34.3°F1.3°C 85% 3.5 mph SSE5.6 kmh SSE 3.5 mph5.6 kmh 30.29 in1025.7 mb - 0.00 in0.0 mm 0.03 in0.8 mm
10:45 AM 38.5°F3.6°C 35.0°F1.7°C 87% 3.5 mph SE5.6 kmh SE 3.5 mph5.6 kmh 30.29 in1025.7 mb - 0.00 in0.0 mm 0.03 in0.8 mm
10:40 AM 38.9°F3.8°C 35.1°F1.7°C 86% 2.3 mph W3.7 kmh W 3.5 mph5.6 kmh 30.29 in1025.7 mb - 0.00 in0.0 mm 0.03 in0.8 mm
10:35 AM 38.9°F3.8°C 35.1°F1.7°C 86% 1.2 mph WSW1.9 kmh WSW 2.3 mph3.7 kmh 30.29 in1025.7 mb - 0.00 in0.0 mm 0.03 in0.8 mm
10:30 AM 38.6°F3.7°C 34.2°F1.2°C 84% 2.3 mph E3.7 kmh E 9.2 mph14.8 kmh 30.29 in1025.7 mb - 0.00 in0.0 mm 0.03 in0.8 mm
10:25 AM 38.5°F3.6°C 34.4°F1.3°C 85% 2.3 mph SE3.7 kmh SE 6.9 mph11.1 kmh 30.29 in1025.7 mb - 0.00 in0.0 mm 0.03 in0.8 mm
10:20 AM 38.3°F3.5°C 34.2°F1.2°C 85% 3.5 mph SW5.6 kmh SW 4.6 mph7.4 kmh 30.29 in1025.7 mb - 0.00 in0.0 mm 0.03 in0.8 mm
10:15 AM 38.2°F3.4°C 34.3°F1.3°C 86% 3.5 mph SW5.6 kmh SW 5.8 mph9.3 kmh 30.28 in1025.4 mb - 0.00 in0.0 mm 0.03 in0.8 mm
10:10 AM 37.9°F3.3°C 34.1°F1.2°C 86% 1.2 mph SSE1.9 kmh SSE 3.5 mph5.6 kmh 30.28 in1025.4 mb - 0.00 in0.0 mm 0.03 in0.8 mm
10:05 AM 37.7°F3.2°C 33.9°F1.1°C 86% 3.5 mph SSE5.6 kmh SSE 4.6 mph7.4 kmh 30.28 in1025.4 mb - 0.00 in0.0 mm 0.03 in0.8 mm
10:00 AM 37.7°F3.2°C 34.1°F1.2°C 87% 2.3 mph SW3.7 kmh SW 3.5 mph5.6 kmh 30.28 in1025.4 mb - 0.00 in0.0 mm 0.03 in0.8 mm
09:55 AM 37.6°F3.1°C 34.1°F1.2°C 87% 3.5 mph S5.6 kmh S 8.1 mph13.0 kmh 30.28 in1025.4 mb - 0.00 in0.0 mm 0.03 in0.8 mm
09:50 AM 37.3°F2.9°C 34.1°F1.2°C 88% 1.2 mph WNW1.9 kmh WNW 3.5 mph5.6 kmh 30.28 in1025.4 mb - 0.00 in0.0 mm 0.03 in0.8 mm
09:45 AM 37.0°F2.8°C 34.0°F1.1°C 89% 2.3 mph S3.7 kmh S 5.8 mph9.3 kmh 30.28 in1025.4 mb - 0.00 in0.0 mm 0.03 in0.8 mm
09:40 AM 36.7°F2.6°C 33.8°F1.0°C 89% 2.3 mph NW3.7 kmh NW 4.6 mph7.4 kmh 30.28 in1025.4 mb - 0.01 in0.3 mm 0.03 in0.8 mm
09:35 AM 36.6°F2.6°C 33.9°F1.1°C 90% 3.5 mph S5.6 kmh S 4.6 mph7.4 kmh 30.28 in1025.4 mb - 0.00 in0.0 mm 0.02 in0.5 mm
09:30 AM 36.4°F2.4°C 33.7°F0.9°C 90% 2.3 mph SSW3.7 kmh SSW 4.6 mph7.4 kmh 30.28 in1025.4 mb - 0.00 in0.0 mm 0.02 in0.5 mm
09:25 AM 36.3°F2.4°C 33.6°F0.9°C 90% 1.2 mph SSE1.9 kmh SSE 3.5 mph5.6 kmh 30.28 in1025.4 mb - 0.01 in0.3 mm 0.02 in0.5 mm
09:20 AM 36.4°F2.4°C 33.5°F0.8°C 89% 1.2 mph ESE1.9 kmh ESE 4.6 mph7.4 kmh 30.28 in1025.4 mb - 0.00 in0.0 mm 0.02 in0.5 mm
09:15 AM 36.5°F2.5°C 33.3°F0.7°C 88% 2.3 mph SE3.7 kmh SE 10.4 mph16.7 kmh 30.28 in1025.4 mb - 0.00 in0.0 mm 0.02 in0.5 mm
09:10 AM 36.6°F2.6°C 33.4°F0.8°C 88% 2.3 mph E3.7 kmh E 3.5 mph5.6 kmh 30.28 in1025.4 mb - 0.00 in0.0 mm 0.02 in0.5 mm
09:05 AM 36.6°F2.6°C 33.4°F0.8°C 88% 1.2 mph SE1.9 kmh SE 3.5 mph5.6 kmh 30.28 in1025.4 mb - 0.00 in0.0 mm 0.02 in0.5 mm
09:00 AM 36.6°F2.6°C 33.4°F0.8°C 88% 1.2 mph E1.9 kmh E 2.3 mph3.7 kmh 30.27 in1025.1 mb - 0.00 in0.0 mm 0.02 in0.5 mm
08:55 AM 36.5°F2.5°C 33.0°F0.6°C 87% 2.3 mph SE3.7 kmh SE 3.5 mph5.6 kmh 30.27 in1025.1 mb - 0.00 in0.0 mm 0.02 in0.5 mm
08:50 AM 36.3°F2.4°C 33.1°F0.6°C 88% 3.5 mph SSE5.6 kmh SSE 5.8 mph9.3 kmh 30.27 in1025.1 mb - 0.00 in0.0 mm 0.02 in0.5 mm
08:45 AM 36.2°F2.3°C 33.0°F0.6°C 88% 2.3 mph SE3.7 kmh SE 3.5 mph5.6 kmh 30.27 in1025.1 mb - 0.00 in0.0 mm 0.02 in0.5 mm
08:40 AM 36.2°F2.3°C 33.0°F0.6°C 88% 2.3 mph SSE3.7 kmh SSE 4.6 mph7.4 kmh 30.27 in1025.1 mb - 0.00 in0.0 mm 0.02 in0.5 mm
08:35 AM 36.2°F2.3°C 33.0°F0.6°C 88% 4.6 mph SSW7.4 kmh SSW 6.9 mph11.1 kmh 30.27 in1025.1 mb - 0.00 in0.0 mm 0.02 in0.5 mm
08:30 AM 36.0°F2.2°C 33.1°F0.6°C 89% 2.3 mph SE3.7 kmh SE 8.1 mph13.0 kmh 30.27 in1025.1 mb - 0.00 in0.0 mm 0.02 in0.5 mm
08:25 AM 35.9°F2.2°C 33.0°F0.6°C 89% 3.5 mph SE5.6 kmh SE 3.5 mph5.6 kmh 30.27 in1025.1 mb - 0.00 in0.0 mm 0.02 in0.5 mm
08:20 AM 35.9°F2.2°C 33.0°F0.6°C 89% 1.2 mph WNW1.9 kmh WNW 2.3 mph3.7 kmh 30.27 in1025.1 mb - 0.00 in0.0 mm 0.02 in0.5 mm
08:15 AM 35.9°F2.2°C 33.0°F0.6°C 89% 1.2 mph SE1.9 kmh SE 2.3 mph3.7 kmh 30.27 in1025.1 mb - 0.00 in0.0 mm 0.02 in0.5 mm
08:10 AM 35.8°F2.1°C 32.9°F0.5°C 89% 2.3 mph SE3.7 kmh SE 3.5 mph5.6 kmh 30.27 in1025.1 mb - 0.00 in0.0 mm 0.02 in0.5 mm
08:05 AM 35.5°F1.9°C 32.9°F0.5°C 90% 2.3 mph SSW3.7 kmh SSW 6.9 mph11.1 kmh 30.27 in1025.1 mb - 0.00 in0.0 mm 0.02 in0.5 mm
08:00 AM 35.5°F1.9°C 32.9°F0.5°C 90% 1.2 mph SSE1.9 kmh SSE 2.3 mph3.7 kmh 30.26 in1024.7 mb - 0.00 in0.0 mm 0.02 in0.5 mm
07:55 AM 35.3°F1.8°C 32.9°F0.5°C 91% 2.3 mph SE3.7 kmh SE 5.8 mph9.3 kmh 30.26 in1024.7 mb - 0.00 in0.0 mm 0.02 in0.5 mm
07:50 AM 35.1°F1.7°C 32.7°F0.4°C 91% 2.3 mph SW3.7 kmh SW 6.9 mph11.1 kmh 30.26 in1024.7 mb - 0.00 in0.0 mm 0.02 in0.5 mm
07:45 AM 34.9°F1.6°C 32.6°F0.3°C 91% 2.3 mph SSE3.7 kmh SSE 4.6 mph7.4 kmh 30.26 in1024.7 mb - 0.00 in0.0 mm 0.02 in0.5 mm
07:40 AM 35.0°F1.7°C 32.6°F0.3°C 91% 1.2 mph E1.9 kmh E 4.6 mph7.4 kmh 30.26 in1024.7 mb - 0.00 in0.0 mm 0.02 in0.5 mm
07:35 AM 35.2°F1.8°C 32.6°F0.3°C 90% 1.2 mph SE1.9 kmh SE 1.2 mph1.9 kmh 30.26 in1024.7 mb - 0.00 in0.0 mm 0.02 in0.5 mm
07:30 AM 35.3°F1.8°C 32.7°F0.4°C 90% 1.2 mph SW1.9 kmh SW 3.5 mph5.6 kmh 30.25 in1024.4 mb - 0.00 in0.0 mm 0.02 in0.5 mm
07:25 AM 35.3°F1.8°C 32.7°F0.4°C 90% 2.3 mph SE3.7 kmh SE 2.3 mph3.7 kmh 30.25 in1024.4 mb - 0.00 in0.0 mm 0.02 in0.5 mm
07:20 AM 35.5°F1.9°C 32.6°F0.3°C 89% 2.3 mph SW3.7 kmh SW 2.3 mph3.7 kmh 30.25 in1024.4 mb - 0.00 in0.0 mm 0.02 in0.5 mm
07:15 AM 35.6°F2.0°C 32.7°F0.4°C 89% 1.2 mph SE1.9 kmh SE 2.3 mph3.7 kmh 30.25 in1024.4 mb - 0.00 in0.0 mm 0.02 in0.5 mm
07:10 AM 35.7°F2.1°C 32.5°F0.3°C 88% 2.3 mph SSE3.7 kmh SSE 3.5 mph5.6 kmh 30.25 in1024.4 mb - 0.00 in0.0 mm 0.02 in0.5 mm
07:05 AM 35.9°F2.2°C 32.7°F0.4°C 88% 2.3 mph SSE3.7 kmh SSE 3.5 mph5.6 kmh 30.25 in1024.4 mb - 0.00 in0.0 mm 0.02 in0.5 mm
07:00 AM 35.8°F2.1°C 32.6°F0.3°C 88% 3.5 mph S5.6 kmh S 9.2 mph14.8 kmh 30.24 in1024.0 mb - 0.00 in0.0 mm 0.02 in0.5 mm
06:55 AM 35.8°F2.1°C 32.6°F0.3°C 88% 3.5 mph SE5.6 kmh SE 4.6 mph7.4 kmh 30.24 in1024.0 mb - 0.00 in0.0 mm 0.02 in0.5 mm
06:50 AM 35.9°F2.2°C 32.7°F0.4°C 88% 2.3 mph SE3.7 kmh SE 3.5 mph5.6 kmh 30.24 in1024.0 mb - 0.00 in0.0 mm 0.02 in0.5 mm
06:45 AM 35.8°F2.1°C 32.6°F0.3°C 88% 4.6 mph SE7.4 kmh SE 11.5 mph18.5 kmh 30.24 in1024.0 mb - 0.00 in0.0 mm 0.02 in0.5 mm
06:40 AM 35.6°F2.0°C 32.4°F0.2°C 88% 3.5 mph S5.6 kmh S 6.9 mph11.1 kmh 30.23 in1023.7 mb - 0.00 in0.0 mm 0.02 in0.5 mm
06:35 AM 35.5°F1.9°C 32.6°F0.3°C 89% 2.3 mph SSE3.7 kmh SSE 5.8 mph9.3 kmh 30.23 in1023.7 mb - 0.00 in0.0 mm 0.02 in0.5 mm
06:30 AM 35.5°F1.9°C 32.6°F0.3°C 89% 2.3 mph W3.7 kmh W 6.9 mph11.1 kmh 30.23 in1023.7 mb - 0.00 in0.0 mm 0.02 in0.5 mm
06:25 AM 35.5°F1.9°C 32.6°F0.3°C 89% 1.2 mph E1.9 kmh E 2.3 mph3.7 kmh 30.23 in1023.7 mb - 0.00 in0.0 mm 0.02 in0.5 mm
06:20 AM 35.3°F1.8°C 32.4°F0.2°C 89% 2.3 mph E3.7 kmh E 13.8 mph22.2 kmh 30.23 in1023.7 mb - 0.01 in0.3 mm 0.02 in0.5 mm
06:15 AM 35.1°F1.7°C 32.4°F0.2°C 90% 3.5 mph ESE5.6 kmh ESE 3.5 mph5.6 kmh 30.23 in1023.7 mb - 0.00 in0.0 mm 0.01 in0.3 mm
06:10 AM 35.1°F1.7°C 32.7°F0.4°C 91% Calm Calm 5.8 mph9.3 kmh 30.23 in1023.7 mb - 0.00 in0.0 mm 0.01 in0.3 mm
06:05 AM 35.3°F1.8°C 32.7°F0.4°C 90% 1.2 mph SSE1.9 kmh SSE 2.3 mph3.7 kmh 30.23 in1023.7 mb - 0.00 in0.0 mm 0.01 in0.3 mm
06:00 AM 35.3°F1.8°C 32.9°F0.5°C 91% 2.3 mph SE3.7 kmh SE 5.8 mph9.3 kmh 30.23 in1023.7 mb - 0.00 in0.0 mm 0.01 in0.3 mm
05:55 AM 35.1°F1.7°C 32.7°F0.4°C 91% 2.3 mph SE3.7 kmh SE 3.5 mph5.6 kmh 30.23 in1023.7 mb - 0.00 in0.0 mm 0.01 in0.3 mm
05:50 AM 35.1°F1.7°C 32.8°F0.4°C 91% 2.3 mph N3.7 kmh N 3.5 mph5.6 kmh 30.23 in1023.7 mb - 0.00 in0.0 mm 0.01 in0.3 mm
05:45 AM 35.2°F1.8°C 32.9°F0.5°C 91% 2.3 mph SE3.7 kmh SE 2.3 mph3.7 kmh 30.23 in1023.7 mb - 0.00 in0.0 mm 0.01 in0.3 mm
05:40 AM 35.4°F1.9°C 33.0°F0.6°C 91% 1.2 mph SE1.9 kmh SE 3.5 mph5.6 kmh 30.22 in1023.4 mb - 0.00 in0.0 mm 0.01 in0.3 mm
05:35 AM 35.5°F1.9°C 32.8°F0.4°C 90% Calm Calm 2.3 mph3.7 kmh 30.22 in1023.4 mb - 0.00 in0.0 mm 0.01 in0.3 mm
05:30 AM 35.5°F1.9°C 32.9°F0.5°C 90% 1.2 mph SW1.9 kmh SW 3.5 mph5.6 kmh 30.23 in1023.7 mb - 0.00 in0.0 mm 0.01 in0.3 mm
05:25 AM 35.7°F2.1°C 33.1°F0.6°C 90% 1.2 mph WNW1.9 kmh WNW 1.2 mph1.9 kmh 30.22 in1023.4 mb - 0.00 in0.0 mm 0.01 in0.3 mm
05:20 AM 35.7°F2.1°C 33.1°F0.6°C 90% 2.3 mph SE3.7 kmh SE 3.5 mph5.6 kmh 30.22 in1023.4 mb - 0.00 in0.0 mm 0.01 in0.3 mm
05:15 AM 35.7°F2.1°C 33.1°F0.6°C 90% 2.3 mph S3.7 kmh S 6.9 mph11.1 kmh 30.22 in1023.4 mb - 0.00 in0.0 mm 0.01 in0.3 mm
05:10 AM 35.5°F1.9°C 32.9°F0.5°C 90% 3.5 mph SSE5.6 kmh SSE 3.5 mph5.6 kmh 30.22 in1023.4 mb - 0.00 in0.0 mm 0.01 in0.3 mm
05:05 AM 35.3°F1.8°C 32.9°F0.5°C 91% 1.2 mph E1.9 kmh E 3.5 mph5.6 kmh 30.22 in1023.4 mb - 0.00 in0.0 mm 0.01 in0.3 mm
05:00 AM 34.9°F1.6°C 32.5°F0.3°C 91% 1.2 mph SE1.9 kmh SE 3.5 mph5.6 kmh 30.22 in1023.4 mb - 0.00 in0.0 mm 0.01 in0.3 mm
04:55 AM 34.7°F1.5°C 32.4°F0.2°C 91% 1.2 mph SE1.9 kmh SE 1.2 mph1.9 kmh 30.22 in1023.4 mb - 0.00 in0.0 mm 0.01 in0.3 mm
04:50 AM 34.6°F1.4°C 32.0°F0.0°C 90% 1.2 mph WNW1.9 kmh WNW 3.5 mph5.6 kmh 30.22 in1023.4 mb - 0.00 in0.0 mm 0.01 in0.3 mm
04:45 AM 35.3°F1.8°C 32.3°F0.2°C 89% Calm Calm -- 30.22 in1023.4 mb - 0.00 in0.0 mm 0.01 in0.3 mm
04:40 AM 35.7°F2.1°C 32.5°F0.3°C 88% Calm Calm 1.2 mph1.9 kmh 30.22 in1023.4 mb - 0.00 in0.0 mm 0.01 in0.3 mm
04:35 AM 36.0°F2.2°C 32.5°F0.3°C 87% 1.2 mph NW1.9 kmh NW 3.5 mph5.6 kmh 30.22 in1023.4 mb - 0.00 in0.0 mm 0.01 in0.3 mm
04:30 AM 36.3°F2.4°C 32.8°F0.4°C 87% 1.2 mph NE1.9 kmh NE 2.3 mph3.7 kmh 30.22 in1023.4 mb - 0.00 in0.0 mm 0.01 in0.3 mm
04:25 AM 36.2°F2.3°C 32.7°F0.4°C 87% 2.3 mph S3.7 kmh S 8.1 mph13.0 kmh 30.22 in1023.4 mb - 0.00 in0.0 mm 0.01 in0.3 mm
04:20 AM 36.3°F2.4°C 33.1°F0.6°C 88% 1.2 mph E1.9 kmh E 1.2 mph1.9 kmh 30.22 in1023.4 mb - 0.00 in0.0 mm 0.01 in0.3 mm
04:15 AM 36.3°F2.4°C 32.8°F0.4°C 87% 1.2 mph SSE1.9 kmh SSE 3.5 mph5.6 kmh 30.22 in1023.4 mb - 0.00 in0.0 mm 0.01 in0.3 mm
04:10 AM 36.2°F2.3°C 33.0°F0.6°C 88% 2.3 mph E3.7 kmh E 3.5 mph5.6 kmh 30.22 in1023.4 mb - 0.00 in0.0 mm 0.01 in0.3 mm
04:05 AM 36.1°F2.3°C 33.5°F0.8°C 90% 1.2 mph SSE1.9 kmh SSE 3.5 mph5.6 kmh 30.22 in1023.4 mb - 0.01 in0.3 mm 0.01 in0.3 mm
04:00 AM 35.9°F2.2°C 33.5°F0.8°C 91% 2.3 mph ESE3.7 kmh ESE 3.5 mph5.6 kmh 30.22 in1023.4 mb - 0.00 in0.0 mm 0.00 in0.0 mm
03:55 AM 35.8°F2.1°C 33.7°F0.9°C 92% 2.3 mph SW3.7 kmh SW 6.9 mph11.1 kmh 30.22 in1023.4 mb - 0.00 in0.0 mm 0.00 in0.0 mm
03:50 AM 35.6°F2.0°C 34.0°F1.1°C 94% 2.3 mph SE3.7 kmh SE 4.6 mph7.4 kmh 30.22 in1023.4 mb - 0.00 in0.0 mm 0.00 in0.0 mm
03:45 AM 35.2°F1.8°C 33.9°F1.1°C 95% 2.3 mph SE3.7 kmh SE 3.5 mph5.6 kmh 30.22 in1023.4 mb - 0.00 in0.0 mm 0.00 in0.0 mm
03:40 AM 34.7°F1.5°C 33.9°F1.1°C 97% 2.3 mph SSE3.7 kmh SSE 9.2 mph14.8 kmh 30.22 in1023.4 mb - 0.00 in0.0 mm 0.00 in0.0 mm
03:35 AM 34.0°F1.1°C 33.5°F0.8°C 98% 2.3 mph ESE3.7 kmh ESE 8.1 mph13.0 kmh 30.22 in1023.4 mb - 0.00 in0.0 mm 0.00 in0.0 mm
03:30 AM 33.1°F0.6°C 32.6°F0.3°C 98% 2.3 mph SW3.7 kmh SW 3.5 mph5.6 kmh 30.22 in1023.4 mb - 0.00 in0.0 mm 0.00 in0.0 mm
03:25 AM 32.3°F0.2°C 31.8°F-0.1°C 98% Calm Calm 1.2 mph1.9 kmh 30.22 in1023.4 mb - 0.00 in0.0 mm 0.00 in0.0 mm
03:20 AM 31.1°F-0.5°C 30.6°F-0.8°C 98% 2.3 mph NW3.7 kmh NW 5.8 mph9.3 kmh 30.22 in1023.4 mb - 0.00 in0.0 mm 0.00 in0.0 mm
03:15 AM 30.9°F-0.6°C 30.4°F-0.9°C 98% Calm Calm 1.2 mph1.9 kmh 30.22 in1023.4 mb - 0.00 in0.0 mm 0.00 in0.0 mm
03:10 AM 30.2°F-1.0°C 29.7°F-1.3°C 98% 1.2 mph E1.9 kmh E 3.5 mph5.6 kmh 30.23 in1023.7 mb - 0.00 in0.0 mm 0.00 in0.0 mm
03:05 AM 29.6°F-1.3°C 28.9°F-1.7°C 97% 1.2 mph E1.9 kmh E 2.3 mph3.7 kmh 30.23 in1023.7 mb - 0.00 in0.0 mm 0.00 in0.0 mm
03:00 AM 29.7°F-1.3°C 28.9°F-1.7°C 97% Calm Calm 1.2 mph1.9 kmh 30.23 in1023.7 mb - 0.00 in0.0 mm 0.00 in0.0 mm
02:55 AM 29.6°F-1.3°C 29.2°F-1.6°C 98% 1.2 mph ESE1.9 kmh ESE 2.3 mph3.7 kmh 30.23 in1023.7 mb - 0.00 in0.0 mm 0.00 in0.0 mm
02:50 AM 29.6°F-1.3°C 29.1°F-1.6°C 98% Calm Calm 1.2 mph1.9 kmh 30.23 in1023.7 mb - 0.00 in0.0 mm 0.00 in0.0 mm
02:45 AM 29.5°F-1.4°C 29.0°F-1.7°C 98% Calm Calm 1.2 mph1.9 kmh 30.23 in1023.7 mb - 0.00 in0.0 mm 0.00 in0.0 mm
02:40 AM 29.3°F-1.5°C 28.5°F-1.9°C 97% Calm Calm -- 30.23 in1023.7 mb - 0.00 in0.0 mm 0.00 in0.0 mm
02:35 AM 29.3°F-1.5°C 28.8°F-1.8°C 98% Calm Calm -- 30.24 in1024.0 mb - 0.00 in0.0 mm 0.00 in0.0 mm
02:30 AM 29.6°F-1.3°C 29.1°F-1.6°C 98% Calm Calm -- 30.24 in1024.0 mb - 0.00 in0.0 mm 0.00 in0.0 mm
02:25 AM 28.8°F-1.8°C 28.1°F-2.2°C 97% 1.2 mph E1.9 kmh E 3.5 mph5.6 kmh 30.24 in1024.0 mb - 0.00 in0.0 mm 0.00 in0.0 mm
02:20 AM 28.6°F-1.9°C 27.9°F-2.3°C 97% Calm Calm 2.3 mph3.7 kmh 30.24 in1024.0 mb - 0.00 in0.0 mm 0.00 in0.0 mm
02:15 AM 28.6°F-1.9°C 27.9°F-2.3°C 97% Calm Calm -- 30.23 in1023.7 mb - 0.00 in0.0 mm 0.00 in0.0 mm
02:10 AM 28.7°F-1.8°C 28.0°F-2.2°C 97% Calm Calm -- 30.23 in1023.7 mb - 0.00 in0.0 mm 0.00 in0.0 mm
02:05 AM 28.3°F-2.1°C 27.6°F-2.4°C 97% 2.3 mph SE3.7 kmh SE 3.5 mph5.6 kmh 30.23 in1023.7 mb - 0.00 in0.0 mm 0.00 in0.0 mm
02:00 AM 28.0°F-2.2°C 27.3°F-2.6°C 97% Calm Calm -- 30.23 in1023.7 mb - 0.00 in0.0 mm 0.00 in0.0 mm
01:55 AM 28.1°F-2.2°C 27.4°F-2.6°C 97% Calm Calm -- 30.23 in1023.7 mb - 0.00 in0.0 mm 0.00 in0.0 mm
01:50 AM 28.1°F-2.2°C 27.4°F-2.6°C 97% Calm Calm -- 30.23 in1023.7 mb - 0.00 in0.0 mm 0.00 in0.0 mm
01:45 AM 28.1°F-2.2°C 27.4°F-2.6°C 97% Calm Calm 2.3 mph3.7 kmh 30.23 in1023.7 mb - 0.00 in0.0 mm 0.00 in0.0 mm
01:40 AM 28.1°F-2.2°C 27.4°F-2.6°C 97% Calm Calm -- 30.23 in1023.7 mb - 0.00 in0.0 mm 0.00 in0.0 mm
01:35 AM 28.2°F-2.1°C 27.5°F-2.5°C 97% Calm Calm -- 30.23 in1023.7 mb - 0.00 in0.0 mm 0.00 in0.0 mm
01:30 AM 28.2°F-2.1°C 27.5°F-2.5°C 97% Calm Calm -- 30.23 in1023.7 mb - 0.00 in0.0 mm 0.00 in0.0 mm
01:25 AM 28.1°F-2.2°C 27.4°F-2.6°C 97% Calm Calm -- 30.22 in1023.4 mb - 0.00 in0.0 mm 0.00 in0.0 mm
01:20 AM 28.2°F-2.1°C 27.5°F-2.5°C 97% Calm Calm -- 30.22 in1023.4 mb - 0.00 in0.0 mm 0.00 in0.0 mm
01:15 AM 28.2°F-2.1°C 27.5°F-2.5°C 97% Calm Calm -- 30.22 in1023.4 mb - 0.00 in0.0 mm 0.00 in0.0 mm
01:10 AM 28.4°F-2.0°C 27.7°F-2.4°C 97% Calm Calm -- 30.22 in1023.4 mb - 0.00 in0.0 mm 0.00 in0.0 mm
01:05 AM 28.5°F-1.9°C 27.8°F-2.3°C 97% Calm Calm -- 30.22 in1023.4 mb - 0.00 in0.0 mm 0.00 in0.0 mm
01:00 AM 28.6°F-1.9°C 27.9°F-2.3°C 97% Calm Calm -- 30.22 in1023.4 mb - 0.00 in0.0 mm 0.00 in0.0 mm
12:55 AM 28.6°F-1.9°C 27.9°F-2.3°C 97% Calm Calm -- 30.22 in1023.4 mb - 0.00 in0.0 mm 0.00 in0.0 mm
12:50 AM 28.7°F-1.8°C 28.0°F-2.2°C 97% Calm Calm -- 30.22 in1023.4 mb - 0.00 in0.0 mm 0.00 in0.0 mm
12:45 AM 28.8°F-1.8°C 28.1°F-2.2°C 97% Calm Calm 2.3 mph3.7 kmh 30.21 in1023.0 mb - 0.00 in0.0 mm 0.00 in0.0 mm
12:40 AM 28.7°F-1.8°C 28.0°F-2.2°C 97% Calm Calm 1.2 mph1.9 kmh 30.21 in1023.0 mb - 0.00 in0.0 mm 0.00 in0.0 mm
12:35 AM 28.6°F-1.9°C 27.9°F-2.3°C 97% Calm Calm 1.2 mph1.9 kmh 30.22 in1023.4 mb - 0.00 in0.0 mm 0.00 in0.0 mm
12:30 AM 28.8°F-1.8°C 28.1°F-2.2°C 97% Calm Calm -- 30.21 in1023.0 mb - 0.00 in0.0 mm 0.00 in0.0 mm
12:25 AM 28.8°F-1.8°C 28.1°F-2.2°C 97% Calm Calm -- 30.21 in1023.0 mb - 0.00 in0.0 mm 0.00 in0.0 mm
12:20 AM 29.0°F-1.7°C 28.3°F-2.1°C 97% Calm Calm -- 30.21 in1023.0 mb - 0.00 in0.0 mm 0.00 in0.0 mm
12:15 AM 29.0°F-1.7°C 28.3°F-2.1°C 97% Calm Calm -- 30.21 in1023.0 mb - 0.00 in0.0 mm 0.00 in0.0 mm
12:10 AM 29.1°F-1.6°C 28.4°F-2.0°C 97% Calm Calm -- 30.21 in1023.0 mb - 0.00 in0.0 mm 0.00 in0.0 mm
12:05 AM 29.3°F-1.5°C 28.6°F-1.9°C 97% Calm Calm -- 30.21 in1023.0 mb - 0.00 in0.0 mm 0.00 in0.0 mm
12:00 AM 29.2°F-1.6°C 28.5°F-1.9°C 97% Calm Calm -- 30.21 in1023.0 mb - 0.00 in0.0 mm 0.00 in0.0 mm